sensor_id;sensor_type;location;lat;lon;timestamp;temperature;humidity
68276;DHT22;55106;51.438;-0.098;2022-12-29T00:02:03;8.63;97.03
68276;DHT22;55106;51.438;-0.098;2022-12-29T00:04:28;8.76;96.87
68276;DHT22;55106;51.438;-0.098;2022-12-29T00:06:54;8.85;95.92
68276;DHT22;55106;51.438;-0.098;2022-12-29T00:09:19;8.90;95.87
68276;DHT22;55106;51.438;-0.098;2022-12-29T00:11:45;8.87;95.67
68276;DHT22;55106;51.438;-0.098;2022-12-29T00:14:12;8.97;95.36
68276;DHT22;55106;51.438;-0.098;2022-12-29T00:16:56;8.94;95.59
68276;DHT22;55106;51.438;-0.098;2022-12-29T00:19:22;9.01;94.99
68276;DHT22;55106;51.438;-0.098;2022-12-29T00:22:06;9.07;94.87
68276;DHT22;55106;51.438;-0.098;2022-12-29T00:24:51;9.10;94.79
68276;DHT22;55106;51.438;-0.098;2022-12-29T00:27:20;9.14;94.61
68276;DHT22;55106;51.438;-0.098;2022-12-29T00:30:15;9.24;94.17
68276;DHT22;55106;51.438;-0.098;2022-12-29T00:33:00;9.22;93.78
68276;DHT22;55106;51.438;-0.098;2022-12-29T00:35:46;9.17;93.75
68276;DHT22;55106;51.438;-0.098;2022-12-29T00:38:13;9.08;94.35
68276;DHT22;55106;51.438;-0.098;2022-12-29T00:40:57;8.93;95.06
68276;DHT22;55106;51.438;-0.098;2022-12-29T00:43:41;8.96;95.04
68276;DHT22;55106;51.438;-0.098;2022-12-29T00:46:25;8.88;95.21
68276;DHT22;55106;51.438;-0.098;2022-12-29T00:48:51;8.74;95.70
68276;DHT22;55106;51.438;-0.098;2022-12-29T00:51:35;8.70;96.01
68276;DHT22;55106;51.438;-0.098;2022-12-29T00:54:00;8.70;95.76
68276;DHT22;55106;51.438;-0.098;2022-12-29T00:56:26;8.67;95.69
68276;DHT22;55106;51.438;-0.098;2022-12-29T00:58:51;8.56;96.08
68276;DHT22;55106;51.438;-0.098;2022-12-29T01:01:16;8.55;96.05
68276;DHT22;55106;51.438;-0.098;2022-12-29T01:03:42;8.60;95.29
68276;DHT22;55106;51.438;-0.098;2022-12-29T01:06:09;8.57;94.92
68276;DHT22;55106;51.438;-0.098;2022-12-29T01:08:35;8.59;94.32
68276;DHT22;55106;51.438;-0.098;2022-12-29T01:11:05;8.60;93.91
68276;DHT22;55106;51.438;-0.098;2022-12-29T01:13:31;8.56;93.49
68276;DHT22;55106;51.438;-0.098;2022-12-29T01:15:57;8.64;92.30
68276;DHT22;55106;51.438;-0.098;2022-12-29T01:18:23;8.63;92.56
68276;DHT22;55106;51.438;-0.098;2022-12-29T01:20:49;8.67;92.65
68276;DHT22;55106;51.438;-0.098;2022-12-29T01:23:15;8.74;91.96
68276;DHT22;55106;51.438;-0.098;2022-12-29T01:25:40;8.69;92.27
68276;DHT22;55106;51.438;-0.098;2022-12-29T01:28:06;8.67;91.63
68276;DHT22;55106;51.438;-0.098;2022-12-29T01:30:34;8.67;92.68
68276;DHT22;55106;51.438;-0.098;2022-12-29T01:32:59;8.87;91.17
68276;DHT22;55106;51.438;-0.098;2022-12-29T01:35:25;8.91;90.93
68276;DHT22;55106;51.438;-0.098;2022-12-29T01:37:50;8.96;90.20
68276;DHT22;55106;51.438;-0.098;2022-12-29T01:40:16;8.96;90.48
68276;DHT22;55106;51.438;-0.098;2022-12-29T01:42:41;8.94;90.89
68276;DHT22;55106;51.438;-0.098;2022-12-29T01:45:12;8.90;91.22
68276;DHT22;55106;51.438;-0.098;2022-12-29T01:47:48;8.87;90.84
68276;DHT22;55106;51.438;-0.098;2022-12-29T01:50:26;8.77;90.82
68276;DHT22;55106;51.438;-0.098;2022-12-29T01:53:06;8.62;90.78
68276;DHT22;55106;51.438;-0.098;2022-12-29T01:55:36;8.59;90.88
68276;DHT22;55106;51.438;-0.098;2022-12-29T01:58:04;8.48;91.07
68276;DHT22;55106;51.438;-0.098;2022-12-29T02:00:30;8.48;90.97
68276;DHT22;55106;51.438;-0.098;2022-12-29T02:02:56;8.38;91.29
68276;DHT22;55106;51.438;-0.098;2022-12-29T02:05:36;8.34;91.13
68276;DHT22;55106;51.438;-0.098;2022-12-29T02:08:03;8.25;91.44
68276;DHT22;55106;51.438;-0.098;2022-12-29T02:10:30;8.26;91.03
68276;DHT22;55106;51.438;-0.098;2022-12-29T02:12:56;8.24;90.89
68276;DHT22;55106;51.438;-0.098;2022-12-29T02:18:40;8.22;90.79
68276;DHT22;55106;51.438;-0.098;2022-12-29T02:26:39;8.21;90.55
68276;DHT22;55106;51.438;-0.098;2022-12-29T02:35:01;8.09;92.18
68276;DHT22;55106;51.438;-0.098;2022-12-29T02:37:58;8.18;92.40
68276;DHT22;55106;51.438;-0.098;2022-12-29T02:43:12;8.45;91.59
68276;DHT22;55106;51.438;-0.098;2022-12-29T02:45:51;8.60;90.82
68276;DHT22;55106;51.438;-0.098;2022-12-29T02:48:41;8.62;91.01
68276;DHT22;55106;51.438;-0.098;2022-12-29T02:51:12;8.56;90.92
68276;DHT22;55106;51.438;-0.098;2022-12-29T02:53:41;8.50;91.12
68276;DHT22;55106;51.438;-0.098;2022-12-29T02:56:25;8.45;91.31
68276;DHT22;55106;51.438;-0.098;2022-12-29T02:58:50;8.41;91.90
68276;DHT22;55106;51.438;-0.098;2022-12-29T03:07:31;8.72;90.63
68276;DHT22;55106;51.438;-0.098;2022-12-29T03:10:12;8.77;90.70
68276;DHT22;55106;51.438;-0.098;2022-12-29T03:19:19;8.84;90.64
68276;DHT22;55106;51.438;-0.098;2022-12-29T03:21:54;8.93;90.36
68276;DHT22;55106;51.438;-0.098;2022-12-29T03:24:44;9.03;89.09
68276;DHT22;55106;51.438;-0.098;2022-12-29T03:27:15;9.10;88.91
68276;DHT22;55106;51.438;-0.098;2022-12-29T03:29:46;9.17;88.60
68276;DHT22;55106;51.438;-0.098;2022-12-29T03:32:14;9.24;88.65
68276;DHT22;55106;51.438;-0.098;2022-12-29T03:34:40;9.28;87.97
68276;DHT22;55106;51.438;-0.098;2022-12-29T03:37:10;9.34;87.82
68276;DHT22;55106;51.438;-0.098;2022-12-29T03:39:38;9.34;88.07
68276;DHT22;55106;51.438;-0.098;2022-12-29T03:42:06;9.35;87.73
68276;DHT22;55106;51.438;-0.098;2022-12-29T03:44:38;9.38;87.59
68276;DHT22;55106;51.438;-0.098;2022-12-29T03:47:05;9.38;88.40
68276;DHT22;55106;51.438;-0.098;2022-12-29T03:49:30;9.31;89.07
68276;DHT22;55106;51.438;-0.098;2022-12-29T03:51:56;9.31;88.73
68276;DHT22;55106;51.438;-0.098;2022-12-29T03:54:21;9.31;89.18
68276;DHT22;55106;51.438;-0.098;2022-12-29T03:56:47;9.32;89.43
68276;DHT22;55106;51.438;-0.098;2022-12-29T03:59:12;9.28;89.49
68276;DHT22;55106;51.438;-0.098;2022-12-29T04:01:37;9.30;89.74
68276;DHT22;55106;51.438;-0.098;2022-12-29T04:04:03;9.30;89.83
68276;DHT22;55106;51.438;-0.098;2022-12-29T04:06:29;9.35;89.43
68276;DHT22;55106;51.438;-0.098;2022-12-29T04:08:54;9.39;89.47
68276;DHT22;55106;51.438;-0.098;2022-12-29T04:11:20;9.39;90.11
68276;DHT22;55106;51.438;-0.098;2022-12-29T04:13:46;9.35;90.88
68276;DHT22;55106;51.438;-0.098;2022-12-29T04:16:11;9.35;90.95
68276;DHT22;55106;51.438;-0.098;2022-12-29T04:18:37;9.34;91.27
68276;DHT22;55106;51.438;-0.098;2022-12-29T04:21:02;9.31;91.35
68276;DHT22;55106;51.438;-0.098;2022-12-29T04:23:29;9.27;91.89
68276;DHT22;55106;51.438;-0.098;2022-12-29T04:25:55;9.20;93.71
68276;DHT22;55106;51.438;-0.098;2022-12-29T04:28:21;9.12;94.92
68276;DHT22;55106;51.438;-0.098;2022-12-29T04:30:46;9.04;95.28
68276;DHT22;55106;51.438;-0.098;2022-12-29T04:33:12;9.00;96.06
68276;DHT22;55106;51.438;-0.098;2022-12-29T04:35:38;8.99;96.51
68276;DHT22;55106;51.438;-0.098;2022-12-29T04:38:03;8.90;96.93
68276;DHT22;55106;51.438;-0.098;2022-12-29T04:40:29;8.88;97.00
68276;DHT22;55106;51.438;-0.098;2022-12-29T04:42:54;8.87;96.37
68276;DHT22;55106;51.438;-0.098;2022-12-29T04:45:19;8.90;96.34
68276;DHT22;55106;51.438;-0.098;2022-12-29T04:47:45;8.94;96.13
68276;DHT22;55106;51.438;-0.098;2022-12-29T04:50:11;8.93;96.44
68276;DHT22;55106;51.438;-0.098;2022-12-29T04:52:36;9.00;96.02
68276;DHT22;55106;51.438;-0.098;2022-12-29T04:55:03;8.96;96.68
68276;DHT22;55106;51.438;-0.098;2022-12-29T04:57:28;8.91;96.54
68276;DHT22;55106;51.438;-0.098;2022-12-29T04:59:54;9.00;96.09
68276;DHT22;55106;51.438;-0.098;2022-12-29T05:02:19;8.96;96.38
68276;DHT22;55106;51.438;-0.098;2022-12-29T05:04:45;8.93;96.63
68276;DHT22;55106;51.438;-0.098;2022-12-29T05:07:11;8.91;96.93
68276;DHT22;55106;51.438;-0.098;2022-12-29T05:09:37;8.93;96.54
68276;DHT22;55106;51.438;-0.098;2022-12-29T05:12:02;8.99;96.57
68276;DHT22;55106;51.438;-0.098;2022-12-29T05:14:27;8.91;96.65
68276;DHT22;55106;51.438;-0.098;2022-12-29T05:16:53;8.94;97.00
68276;DHT22;55106;51.438;-0.098;2022-12-29T05:19:18;8.91;97.18
68276;DHT22;55106;51.438;-0.098;2022-12-29T05:21:44;8.85;97.50
68276;DHT22;55106;51.438;-0.098;2022-12-29T05:24:09;8.90;97.27
68276;DHT22;55106;51.438;-0.098;2022-12-29T05:26:35;8.87;97.56
68276;DHT22;55106;51.438;-0.098;2022-12-29T05:29:00;8.88;97.63
68276;DHT22;55106;51.438;-0.098;2022-12-29T05:31:26;8.94;97.46
68276;DHT22;55106;51.438;-0.098;2022-12-29T05:33:52;8.96;97.23
68276;DHT22;55106;51.438;-0.098;2022-12-29T05:36:17;9.00;97.23
68276;DHT22;55106;51.438;-0.098;2022-12-29T05:38:43;9.03;97.05
68276;DHT22;55106;51.438;-0.098;2022-12-29T05:41:08;8.99;97.24
68276;DHT22;55106;51.438;-0.098;2022-12-29T05:43:34;9.01;96.78
68276;DHT22;55106;51.438;-0.098;2022-12-29T05:45:59;9.00;97.17
68276;DHT22;55106;51.438;-0.098;2022-12-29T05:48:25;9.07;96.50
68276;DHT22;55106;51.438;-0.098;2022-12-29T05:50:51;9.07;96.45
68276;DHT22;55106;51.438;-0.098;2022-12-29T05:53:17;9.04;96.54
68276;DHT22;55106;51.438;-0.098;2022-12-29T05:55:46;9.07;96.34
68276;DHT22;55106;51.438;-0.098;2022-12-29T05:58:12;9.01;96.22
68276;DHT22;55106;51.438;-0.098;2022-12-29T06:00:37;8.97;96.48
68276;DHT22;55106;51.438;-0.098;2022-12-29T06:03:03;9.01;95.77
68276;DHT22;55106;51.438;-0.098;2022-12-29T06:05:29;8.93;95.67
68276;DHT22;55106;51.438;-0.098;2022-12-29T06:07:54;8.87;95.97
68276;DHT22;55106;51.438;-0.098;2022-12-29T06:10:19;8.76;95.54
68276;DHT22;55106;51.438;-0.098;2022-12-29T06:12:45;8.69;95.71
68276;DHT22;55106;51.438;-0.098;2022-12-29T06:15:11;8.56;95.69
68276;DHT22;55106;51.438;-0.098;2022-12-29T06:17:36;8.50;94.94
68276;DHT22;55106;51.438;-0.098;2022-12-29T06:20:02;8.49;94.08
68276;DHT22;55106;51.438;-0.098;2022-12-29T06:22:28;8.43;93.90
68276;DHT22;55106;51.438;-0.098;2022-12-29T06:24:53;8.36;94.14
68276;DHT22;55106;51.438;-0.098;2022-12-29T06:27:18;8.26;94.62
68276;DHT22;55106;51.438;-0.098;2022-12-29T06:29:44;8.20;94.81
68276;DHT22;55106;51.438;-0.098;2022-12-29T06:32:09;8.14;94.93
68276;DHT22;55106;51.438;-0.098;2022-12-29T06:34:35;8.05;95.08
68276;DHT22;55106;51.438;-0.098;2022-12-29T06:37:00;7.95;94.90
68276;DHT22;55106;51.438;-0.098;2022-12-29T06:39:27;7.93;95.08
68276;DHT22;55106;51.438;-0.098;2022-12-29T06:41:52;7.88;95.30
68276;DHT22;55106;51.438;-0.098;2022-12-29T06:44:19;7.84;95.47
68276;DHT22;55106;51.438;-0.098;2022-12-29T06:46:44;7.93;95.04
68276;DHT22;55106;51.438;-0.098;2022-12-29T06:49:10;7.86;95.62
68276;DHT22;55106;51.438;-0.098;2022-12-29T06:51:35;7.76;95.54
68276;DHT22;55106;51.438;-0.098;2022-12-29T06:54:01;7.67;95.51
68276;DHT22;55106;51.438;-0.098;2022-12-29T06:56:26;7.71;95.66
68276;DHT22;55106;51.438;-0.098;2022-12-29T06:58:51;7.74;94.90
68276;DHT22;55106;51.438;-0.098;2022-12-29T07:01:17;7.78;94.77
68276;DHT22;55106;51.438;-0.098;2022-12-29T07:03:42;7.73;94.81
68276;DHT22;55106;51.438;-0.098;2022-12-29T07:06:08;7.70;95.00
68276;DHT22;55106;51.438;-0.098;2022-12-29T07:08:33;7.77;94.31
68276;DHT22;55106;51.438;-0.098;2022-12-29T07:10:59;7.77;94.04
68276;DHT22;55106;51.438;-0.098;2022-12-29T07:13:24;7.69;94.30
68276;DHT22;55106;51.438;-0.098;2022-12-29T07:15:49;7.67;94.18
68276;DHT22;55106;51.438;-0.098;2022-12-29T07:18:15;7.59;94.30
68276;DHT22;55106;51.438;-0.098;2022-12-29T07:20:40;7.59;94.31
68276;DHT22;55106;51.438;-0.098;2022-12-29T07:23:05;7.55;94.15
68276;DHT22;55106;51.438;-0.098;2022-12-29T07:25:31;7.46;94.65
68276;DHT22;55106;51.438;-0.098;2022-12-29T07:27:56;7.33;94.90
68276;DHT22;55106;51.438;-0.098;2022-12-29T07:30:22;7.35;95.04
68276;DHT22;55106;51.438;-0.098;2022-12-29T07:32:47;7.28;95.18
68276;DHT22;55106;51.438;-0.098;2022-12-29T07:35:12;7.28;95.22
68276;DHT22;55106;51.438;-0.098;2022-12-29T07:37:38;7.20;95.51
68276;DHT22;55106;51.438;-0.098;2022-12-29T07:40:03;7.22;95.68
68276;DHT22;55106;51.438;-0.098;2022-12-29T07:42:30;7.23;95.42
68276;DHT22;55106;51.438;-0.098;2022-12-29T07:44:55;7.30;94.65
68276;DHT22;55106;51.438;-0.098;2022-12-29T07:47:21;7.32;94.59
68276;DHT22;55106;51.438;-0.098;2022-12-29T07:49:46;7.36;94.10
68276;DHT22;55106;51.438;-0.098;2022-12-29T07:52:12;7.29;94.39
68276;DHT22;55106;51.438;-0.098;2022-12-29T07:54:37;7.29;94.18
68276;DHT22;55106;51.438;-0.098;2022-12-29T07:57:04;7.22;94.52
68276;DHT22;55106;51.438;-0.098;2022-12-29T07:59:29;7.25;94.90
68276;DHT22;55106;51.438;-0.098;2022-12-29T08:01:55;7.23;94.71
68276;DHT22;55106;51.438;-0.098;2022-12-29T08:04:20;7.33;94.06
68276;DHT22;55106;51.438;-0.098;2022-12-29T08:06:46;7.35;94.45
68276;DHT22;55106;51.438;-0.098;2022-12-29T08:09:11;7.22;94.67
68276;DHT22;55106;51.438;-0.098;2022-12-29T08:11:37;7.22;94.73
68276;DHT22;55106;51.438;-0.098;2022-12-29T08:14:03;7.30;94.78
68276;DHT22;55106;51.438;-0.098;2022-12-29T08:16:28;7.33;95.13
68276;DHT22;55106;51.438;-0.098;2022-12-29T08:18:53;7.36;95.39
68276;DHT22;55106;51.438;-0.098;2022-12-29T08:21:19;7.40;95.30
68276;DHT22;55106;51.438;-0.098;2022-12-29T08:23:44;7.43;95.25
68276;DHT22;55106;51.438;-0.098;2022-12-29T08:26:10;7.49;95.10
68276;DHT22;55106;51.438;-0.098;2022-12-29T08:28:36;7.57;95.05
68276;DHT22;55106;51.438;-0.098;2022-12-29T08:31:02;7.52;95.04
68276;DHT22;55106;51.438;-0.098;2022-12-29T08:33:28;7.52;95.29
68276;DHT22;55106;51.438;-0.098;2022-12-29T08:36:02;7.45;95.54
68276;DHT22;55106;51.438;-0.098;2022-12-29T08:38:28;7.53;95.03
68276;DHT22;55106;51.438;-0.098;2022-12-29T08:40:54;7.49;95.40
68276;DHT22;55106;51.438;-0.098;2022-12-29T08:43:19;7.55;95.50
68276;DHT22;55106;51.438;-0.098;2022-12-29T08:45:45;7.63;95.57
68276;DHT22;55106;51.438;-0.098;2022-12-29T08:48:10;7.80;95.27
68276;DHT22;55106;51.438;-0.098;2022-12-29T08:50:35;7.94;94.13
68276;DHT22;55106;51.438;-0.098;2022-12-29T08:53:01;7.97;94.29
68276;DHT22;55106;51.438;-0.098;2022-12-29T08:55:26;7.95;94.44
68276;DHT22;55106;51.438;-0.098;2022-12-29T08:57:52;7.91;94.64
68276;DHT22;55106;51.438;-0.098;2022-12-29T09:00:17;7.94;94.38
68276;DHT22;55106;51.438;-0.098;2022-12-29T09:02:43;8.18;93.36
68276;DHT22;55106;51.438;-0.098;2022-12-29T09:05:08;8.57;92.60
68276;DHT22;55106;51.438;-0.098;2022-12-29T09:07:34;8.97;90.51
68276;DHT22;55106;51.438;-0.098;2022-12-29T09:10:00;9.20;89.61
68276;DHT22;55106;51.438;-0.098;2022-12-29T09:12:25;9.21;89.44
68276;DHT22;55106;51.438;-0.098;2022-12-29T09:14:51;8.96;90.18
68276;DHT22;55106;51.438;-0.098;2022-12-29T09:17:16;8.81;90.68
68276;DHT22;55106;51.438;-0.098;2022-12-29T09:20:00;8.79;91.00
68276;DHT22;55106;51.438;-0.098;2022-12-29T09:22:25;8.88;90.29
68276;DHT22;55106;51.438;-0.098;2022-12-29T09:24:51;8.81;90.80
68276;DHT22;55106;51.438;-0.098;2022-12-29T09:27:16;8.93;90.30
68276;DHT22;55106;51.438;-0.098;2022-12-29T09:29:41;8.79;90.62
68276;DHT22;55106;51.438;-0.098;2022-12-29T09:32:07;8.66;91.41
68276;DHT22;55106;51.438;-0.098;2022-12-29T09:34:32;8.60;91.36
68276;DHT22;55106;51.438;-0.098;2022-12-29T09:36:58;8.43;91.73
68276;DHT22;55106;51.438;-0.098;2022-12-29T09:39:23;8.28;92.25
68276;DHT22;55106;51.438;-0.098;2022-12-29T09:47:38;8.25;92.14
68276;DHT22;55106;51.438;-0.098;2022-12-29T09:52:51;8.69;91.24
68276;DHT22;55106;51.438;-0.098;2022-12-29T09:55:23;8.69;90.76
68276;DHT22;55106;51.438;-0.098;2022-12-29T09:58:25;8.72;90.72
68276;DHT22;55106;51.438;-0.098;2022-12-29T10:00:50;8.85;90.23
68276;DHT22;55106;51.438;-0.098;2022-12-29T10:03:19;8.91;90.49
68276;DHT22;55106;51.438;-0.098;2022-12-29T10:06:05;8.97;90.47
68276;DHT22;55106;51.438;-0.098;2022-12-29T10:08:44;8.96;90.48
68276;DHT22;55106;51.438;-0.098;2022-12-29T10:14:13;9.10;89.29
68276;DHT22;55106;51.438;-0.098;2022-12-29T10:22:15;8.94;89.46
68276;DHT22;55106;51.438;-0.098;2022-12-29T10:24:48;9.00;89.93
68276;DHT22;55106;51.438;-0.098;2022-12-29T10:27:16;9.05;88.50
68276;DHT22;55106;51.438;-0.098;2022-12-29T10:29:48;9.03;88.73
68276;DHT22;55106;51.438;-0.098;2022-12-29T10:34:58;8.93;88.77
68276;DHT22;55106;51.438;-0.098;2022-12-29T10:37:37;8.93;88.65
68276;DHT22;55106;51.438;-0.098;2022-12-29T10:40:19;8.91;88.44
68276;DHT22;55106;51.438;-0.098;2022-12-29T10:42:52;8.84;88.59
68276;DHT22;55106;51.438;-0.098;2022-12-29T10:45:18;8.80;88.38
68276;DHT22;55106;51.438;-0.098;2022-12-29T10:47:53;8.73;89.08
68276;DHT22;55106;51.438;-0.098;2022-12-29T10:50:19;8.72;88.81
68276;DHT22;55106;51.438;-0.098;2022-12-29T10:52:44;8.69;89.70
68276;DHT22;55106;51.438;-0.098;2022-12-29T10:55:15;8.64;88.93
68276;DHT22;55106;51.438;-0.098;2022-12-29T10:57:44;8.63;88.70
68276;DHT22;55106;51.438;-0.098;2022-12-29T11:05:55;8.85;88.27
68276;DHT22;55106;51.438;-0.098;2022-12-29T11:08:26;8.84;88.86
68276;DHT22;55106;51.438;-0.098;2022-12-29T11:11:14;8.91;89.27
68276;DHT22;55106;51.438;-0.098;2022-12-29T11:13:49;8.97;88.41
68276;DHT22;55106;51.438;-0.098;2022-12-29T11:16:27;9.01;87.88
68276;DHT22;55106;51.438;-0.098;2022-12-29T11:18:53;9.08;88.45
68276;DHT22;55106;51.438;-0.098;2022-12-29T11:21:36;9.14;87.86
68276;DHT22;55106;51.438;-0.098;2022-12-29T11:24:26;9.18;87.12
68276;DHT22;55106;51.438;-0.098;2022-12-29T11:27:15;9.24;87.46
68276;DHT22;55106;51.438;-0.098;2022-12-29T11:29:41;9.35;86.26
68276;DHT22;55106;51.438;-0.098;2022-12-29T11:34:44;9.45;85.78
68276;DHT22;55106;51.438;-0.098;2022-12-29T11:37:12;9.31;84.94
68276;DHT22;55106;51.438;-0.098;2022-12-29T11:40:23;9.31;85.05
68276;DHT22;55106;51.438;-0.098;2022-12-29T11:42:40;9.24;85.25
68276;DHT22;55106;51.438;-0.098;2022-12-29T11:47:50;9.31;84.64
68276;DHT22;55106;51.438;-0.098;2022-12-29T11:50:22;9.39;84.38
68276;DHT22;55106;51.438;-0.098;2022-12-29T11:52:50;9.45;84.81
68276;DHT22;55106;51.438;-0.098;2022-12-29T11:55:25;9.46;83.98
68276;DHT22;55106;51.438;-0.098;2022-12-29T11:57:54;9.48;83.89
68276;DHT22;55106;51.438;-0.098;2022-12-29T12:00:22;9.45;84.32
68276;DHT22;55106;51.438;-0.098;2022-12-29T12:03:14;9.34;83.63
68276;DHT22;55106;51.438;-0.098;2022-12-29T12:05:41;9.24;83.59
68276;DHT22;55106;51.438;-0.098;2022-12-29T12:08:17;9.12;83.57
68276;DHT22;55106;51.438;-0.098;2022-12-29T12:10:57;9.10;84.42
68276;DHT22;55106;51.438;-0.098;2022-12-29T12:13:31;9.03;84.19
68276;DHT22;55106;51.438;-0.098;2022-12-29T12:18:53;8.94;84.42
68276;DHT22;55106;51.438;-0.098;2022-12-29T12:21:39;9.00;84.58
68276;DHT22;55106;51.438;-0.098;2022-12-29T12:24:34;9.00;85.03
68276;DHT22;55106;51.438;-0.098;2022-12-29T12:27:14;8.96;84.85
68276;DHT22;55106;51.438;-0.098;2022-12-29T12:30:01;8.85;83.94
68276;DHT22;55106;51.438;-0.098;2022-12-29T12:32:44;8.79;84.65
68276;DHT22;55106;51.438;-0.098;2022-12-29T12:38:31;8.74;85.13
68276;DHT22;55106;51.438;-0.098;2022-12-29T12:41:09;8.66;84.29
68276;DHT22;55106;51.438;-0.098;2022-12-29T12:43:40;8.60;84.41
68276;DHT22;55106;51.438;-0.098;2022-12-29T13:03:34;8.97;84.09
68276;DHT22;55106;51.438;-0.098;2022-12-29T13:11:33;9.15;81.88
68276;DHT22;55106;51.438;-0.098;2022-12-29T13:17:08;9.17;82.34
68276;DHT22;55106;51.438;-0.098;2022-12-29T13:19:41;9.24;82.39
68276;DHT22;55106;51.438;-0.098;2022-12-29T13:22:18;9.24;81.72
68276;DHT22;55106;51.438;-0.098;2022-12-29T13:25:07;9.32;81.39
68276;DHT22;55106;51.438;-0.098;2022-12-29T13:27:47;9.45;81.12
68276;DHT22;55106;51.438;-0.098;2022-12-29T13:30:19;9.41;81.64
68276;DHT22;55106;51.438;-0.098;2022-12-29T13:33:10;9.46;81.18
68276;DHT22;55106;51.438;-0.098;2022-12-29T13:38:44;9.36;81.12
68276;DHT22;55106;51.438;-0.098;2022-12-29T13:41:23;9.32;81.03
68276;DHT22;55106;51.438;-0.098;2022-12-29T13:43:50;9.25;81.17
68276;DHT22;55106;51.438;-0.098;2022-12-29T13:46:22;9.22;81.52
68276;DHT22;55106;51.438;-0.098;2022-12-29T13:49:04;9.25;82.15
68276;DHT22;55106;51.438;-0.098;2022-12-29T13:51:32;9.35;81.82
68276;DHT22;55106;51.438;-0.098;2022-12-29T14:00:03;9.43;80.15
68276;DHT22;55106;51.438;-0.098;2022-12-29T14:07:49;9.32;79.52
68276;DHT22;55106;51.438;-0.098;2022-12-29T14:10:35;9.38;78.85
68276;DHT22;55106;51.438;-0.098;2022-12-29T14:13:17;9.32;79.48
68276;DHT22;55106;51.438;-0.098;2022-12-29T14:15:45;9.25;79.33
68276;DHT22;55106;51.438;-0.098;2022-12-29T14:18:21;9.10;79.84
68276;DHT22;55106;51.438;-0.098;2022-12-29T14:21:40;9.10;80.18
68276;DHT22;55106;51.438;-0.098;2022-12-29T14:23:43;9.11;81.97
68276;DHT22;55106;51.438;-0.098;2022-12-29T14:28:39;9.00;79.51
68276;DHT22;55106;51.438;-0.098;2022-12-29T14:33:39;8.77;79.38
68276;DHT22;55106;51.438;-0.098;2022-12-29T14:42:05;8.36;81.13
68276;DHT22;55106;51.438;-0.098;2022-12-29T14:44:32;8.28;81.94
68276;DHT22;55106;51.438;-0.098;2022-12-29T14:47:01;8.26;82.15
68276;DHT22;55106;51.438;-0.098;2022-12-29T14:49:32;8.22;82.08
68276;DHT22;55106;51.438;-0.098;2022-12-29T14:52:25;8.22;82.21
68276;DHT22;55106;51.438;-0.098;2022-12-29T14:55:28;8.21;82.70
68276;DHT22;55106;51.438;-0.098;2022-12-29T14:57:50;8.25;82.57
68276;DHT22;55106;51.438;-0.098;2022-12-29T15:00:34;8.29;82.06
68276;DHT22;55106;51.438;-0.098;2022-12-29T15:03:25;8.25;81.95
68276;DHT22;55106;51.438;-0.098;2022-12-29T15:06:03;8.22;82.31
68276;DHT22;55106;51.438;-0.098;2022-12-29T15:08:34;8.18;81.60
68276;DHT22;55106;51.438;-0.098;2022-12-29T15:11:09;8.14;81.42
68276;DHT22;55106;51.438;-0.098;2022-12-29T15:13:38;8.11;81.86
68276;DHT22;55106;51.438;-0.098;2022-12-29T15:16:05;8.12;81.35
68276;DHT22;55106;51.438;-0.098;2022-12-29T15:18:32;8.16;81.39
68276;DHT22;55106;51.438;-0.098;2022-12-29T15:21:03;8.07;81.90
68276;DHT22;55106;51.438;-0.098;2022-12-29T15:23:31;8.14;80.85
68276;DHT22;55106;51.438;-0.098;2022-12-29T15:26:04;8.11;81.67
68276;DHT22;55106;51.438;-0.098;2022-12-29T15:28:46;8.02;81.25
68276;DHT22;55106;51.438;-0.098;2022-12-29T15:31:23;7.94;81.85
68276;DHT22;55106;51.438;-0.098;2022-12-29T15:33:52;7.94;81.46
68276;DHT22;55106;51.438;-0.098;2022-12-29T15:36:25;7.84;82.40
68276;DHT22;55106;51.438;-0.098;2022-12-29T15:38:51;7.80;81.68
68276;DHT22;55106;51.438;-0.098;2022-12-29T15:44:12;7.62;82.24
68276;DHT22;55106;51.438;-0.098;2022-12-29T15:46:41;7.67;82.07
68276;DHT22;55106;51.438;-0.098;2022-12-29T15:49:08;7.74;81.62
68276;DHT22;55106;51.438;-0.098;2022-12-29T15:51:37;7.80;81.52
68276;DHT22;55106;51.438;-0.098;2022-12-29T15:54:03;7.81;81.71
68276;DHT22;55106;51.438;-0.098;2022-12-29T15:56:30;7.95;81.41
68276;DHT22;55106;51.438;-0.098;2022-12-29T15:58:56;7.93;80.94
68276;DHT22;55106;51.438;-0.098;2022-12-29T16:03:54;7.69;82.18
68276;DHT22;55106;51.438;-0.098;2022-12-29T16:06:31;7.62;82.67
68276;DHT22;55106;51.438;-0.098;2022-12-29T16:11:36;7.52;82.79
68276;DHT22;55106;51.438;-0.098;2022-12-29T16:14:10;7.53;82.75
68276;DHT22;55106;51.438;-0.098;2022-12-29T16:16:39;7.43;82.60
68276;DHT22;55106;51.438;-0.098;2022-12-29T16:19:26;7.49;81.78
68276;DHT22;55106;51.438;-0.098;2022-12-29T16:21:53;7.43;82.16
68276;DHT22;55106;51.438;-0.098;2022-12-29T16:24:24;7.30;82.38
68276;DHT22;55106;51.438;-0.098;2022-12-29T16:27:09;7.29;82.57
68276;DHT22;55106;51.438;-0.098;2022-12-29T16:29:39;7.26;83.19
68276;DHT22;55106;51.438;-0.098;2022-12-29T16:32:24;7.20;83.61
68276;DHT22;55106;51.438;-0.098;2022-12-29T16:37:36;7.38;82.96
68276;DHT22;55106;51.438;-0.098;2022-12-29T16:42:47;7.42;83.05
68276;DHT22;55106;51.438;-0.098;2022-12-29T16:50:34;7.53;82.99
68276;DHT22;55106;51.438;-0.098;2022-12-29T16:53:01;7.50;83.91
68276;DHT22;55106;51.438;-0.098;2022-12-29T16:55:28;7.43;83.66
68276;DHT22;55106;51.438;-0.098;2022-12-29T16:57:55;7.38;84.49
68276;DHT22;55106;51.438;-0.098;2022-12-29T17:00:27;7.25;84.61
68276;DHT22;55106;51.438;-0.098;2022-12-29T17:02:56;7.18;85.41
68276;DHT22;55106;51.438;-0.098;2022-12-29T17:05:22;7.08;85.44
68276;DHT22;55106;51.438;-0.098;2022-12-29T17:07:48;7.05;85.90
68276;DHT22;55106;51.438;-0.098;2022-12-29T17:10:14;6.95;85.71
68276;DHT22;55106;51.438;-0.098;2022-12-29T17:12:41;6.83;86.39
68276;DHT22;55106;51.438;-0.098;2022-12-29T17:15:14;6.78;86.56
68276;DHT22;55106;51.438;-0.098;2022-12-29T17:17:41;6.76;87.13
68276;DHT22;55106;51.438;-0.098;2022-12-29T17:22:41;6.64;87.39
68276;DHT22;55106;51.438;-0.098;2022-12-29T17:25:12;6.54;87.65
68276;DHT22;55106;51.438;-0.098;2022-12-29T17:27:45;6.46;88.09
68276;DHT22;55106;51.438;-0.098;2022-12-29T17:32:37;6.51;88.07
68276;DHT22;55106;51.438;-0.098;2022-12-29T17:35:04;6.42;88.25
68276;DHT22;55106;51.438;-0.098;2022-12-29T17:37:34;6.34;88.69
68276;DHT22;55106;51.438;-0.098;2022-12-29T17:40:00;6.39;88.41
68276;DHT22;55106;51.438;-0.098;2022-12-29T17:42:25;6.40;88.85
68276;DHT22;55106;51.438;-0.098;2022-12-29T17:44:51;6.29;88.62
68276;DHT22;55106;51.438;-0.098;2022-12-29T17:47:17;6.25;89.08
68276;DHT22;55106;51.438;-0.098;2022-12-29T17:49:42;6.30;88.94
68276;DHT22;55106;51.438;-0.098;2022-12-29T17:52:12;6.30;89.26
68276;DHT22;55106;51.438;-0.098;2022-12-29T17:54:43;6.16;89.54
68276;DHT22;55106;51.438;-0.098;2022-12-29T17:57:14;6.08;89.85
68276;DHT22;55106;51.438;-0.098;2022-12-29T17:59:40;6.11;89.65
68276;DHT22;55106;51.438;-0.098;2022-12-29T18:02:22;6.01;89.92
68276;DHT22;55106;51.438;-0.098;2022-12-29T18:04:47;5.98;90.25
68276;DHT22;55106;51.438;-0.098;2022-12-29T18:07:13;5.87;90.66
68276;DHT22;55106;51.438;-0.098;2022-12-29T18:09:38;5.90;90.88